createdAt,value
2018-07-27T00:00:36.649Z,69.29
2018-07-27T00:03:06.379Z,69.72
2018-07-27T00:05:35.569Z,70.29
2018-07-27T00:08:05.036Z,70.82
2018-07-27T00:10:34.587Z,70.87
2018-07-27T00:13:03.740Z,70.38
2018-07-27T00:15:33.206Z,70.23
2018-07-27T00:18:02.648Z,70.07
2018-07-27T00:20:32.138Z,70.16
2018-07-27T00:23:01.580Z,70.07
2018-07-27T00:25:30.784Z,70.50
2018-07-27T00:28:00.267Z,70.78
2018-07-27T00:30:33.335Z,70.89
2018-07-27T00:33:02.902Z,71.31
2018-07-27T00:35:32.325Z,71.06
2018-07-27T00:38:01.741Z,71.38
2018-07-27T00:40:31.170Z,71.29
2018-07-27T00:43:00.595Z,71.90
2018-07-27T00:45:30.049Z,72.26
2018-07-27T00:47:59.509Z,72.14
2018-07-27T00:50:28.987Z,72.45
2018-07-27T00:52:58.410Z,72.95
2018-07-27T00:55:27.868Z,72.66
2018-07-27T00:57:57.020Z,72.86
2018-07-27T01:00:26.499Z,72.60
2018-07-27T01:02:55.937Z,72.71
2018-07-27T01:05:25.389Z,73.15
2018-07-27T01:07:55.032Z,72.86
2018-07-27T01:10:24.457Z,73.00
2018-07-27T01:12:53.895Z,73.70
2018-07-27T01:15:23.634Z,73.58
2018-07-27T01:17:53.068Z,73.30
2018-07-27T01:20:22.616Z,74.07
2018-07-27T01:22:52.651Z,73.86
2018-07-27T01:25:22.095Z,73.26
2018-07-27T01:27:51.543Z,73.55
2018-07-27T01:30:21.004Z,73.49
2018-07-27T01:32:50.481Z,74.39
2018-07-27T01:35:19.901Z,74.14
2018-07-27T01:37:49.339Z,74.16
2018-07-27T01:40:18.738Z,74.15
2018-07-27T01:42:48.323Z,74.73
2018-07-27T01:45:17.705Z,74.63
2018-07-27T01:47:47.105Z,74.58
2018-07-27T01:50:16.547Z,75.01
2018-07-27T01:52:46.027Z,74.82
2018-07-27T01:55:16.041Z,75.28
2018-07-27T01:57:45.466Z,75.44
2018-07-27T02:00:15.067Z,75.20
2018-07-27T02:02:44.483Z,76.14
2018-07-27T02:05:13.892Z,76.20
2018-07-27T02:07:43.298Z,75.83
2018-07-27T02:10:12.494Z,75.95
2018-07-27T02:12:41.936Z,76.26
2018-07-27T02:15:11.428Z,76.37
2018-07-27T02:17:40.911Z,76.04
2018-07-27T02:20:10.895Z,76.13
2018-07-27T02:22:40.714Z,76.34
2018-07-27T02:25:10.153Z,76.53
2018-07-27T02:27:39.661Z,76.53
2018-07-27T02:30:09.141Z,76.78
2018-07-27T02:32:38.601Z,76.50
2018-07-27T02:35:08.520Z,76.86
2018-07-27T02:37:38.417Z,77.35
2018-07-27T02:40:08.471Z,77.44
2018-07-27T02:42:37.842Z,77.90
2018-07-27T02:45:07.466Z,77.19
2018-07-27T02:47:37.542Z,77.27
2018-07-27T02:50:07.236Z,77.30
2018-07-27T02:52:36.680Z,76.62
2018-07-27T02:55:06.184Z,76.51
2018-07-27T02:57:36.359Z,76.79
2018-07-27T03:00:08.406Z,76.17
2018-07-27T03:02:38.812Z,76.21
2018-07-27T03:05:08.673Z,76.41
2018-07-27T03:07:38.165Z,77.00
2018-07-27T03:10:08.002Z,76.79
2018-07-27T03:12:37.598Z,76.79
2018-07-27T03:15:07.221Z,76.31
2018-07-27T03:17:36.376Z,76.92
2018-07-27T03:20:06.059Z,77.19
2018-07-27T03:22:36.066Z,76.85
2018-07-27T03:25:05.861Z,76.93
2018-07-27T03:27:35.329Z,76.87
2018-07-27T03:30:05.269Z,76.81
2018-07-27T03:32:34.695Z,76.37
2018-07-27T03:35:04.203Z,76.94
2018-07-27T03:37:33.684Z,76.56
2018-07-27T03:40:02.940Z,76.71
2018-07-27T03:42:33.164Z,76.85
2018-07-27T03:45:02.580Z,76.53
2018-07-27T03:47:32.001Z,76.95
2018-07-27T03:50:01.391Z,76.49
2018-07-27T03:52:30.863Z,76.98
2018-07-27T03:55:00.243Z,76.92
2018-07-27T03:57:29.618Z,77.07
2018-07-27T03:59:58.789Z,77.04
2018-07-27T04:02:28.209Z,77.39
2018-07-27T04:04:57.685Z,77.27
2018-07-27T04:07:27.185Z,77.11
2018-07-27T04:09:57.078Z,77.22
2018-07-27T04:12:27.539Z,76.99
2018-07-27T04:14:56.969Z,77.57
2018-07-27T04:17:26.473Z,77.29
2018-07-27T04:19:55.945Z,77.32
2018-07-27T04:22:25.422Z,77.80
2018-07-27T04:24:55.297Z,77.58
2018-07-27T04:27:25.177Z,77.99
2018-07-27T04:29:54.630Z,77.76
2018-07-27T04:32:24.012Z,78.16
2018-07-27T04:34:53.159Z,78.04
2018-07-27T04:37:22.332Z,77.90
2018-07-27T04:39:51.801Z,78.03
2018-07-27T04:42:21.422Z,77.58
2018-07-27T04:44:50.944Z,77.46
2018-07-27T04:47:20.530Z,78.01
2018-07-27T04:49:49.980Z,78.02
2018-07-27T04:52:19.458Z,77.44
2018-07-27T04:54:48.957Z,77.84
2018-07-27T04:57:18.434Z,77.34
2018-07-27T04:59:47.920Z,78.09
2018-07-27T05:02:17.324Z,78.14
2018-07-27T05:04:46.989Z,78.28
2018-07-27T05:07:16.637Z,78.64
2018-07-27T05:09:46.128Z,78.32
2018-07-27T05:12:15.552Z,78.34
2018-07-27T05:14:44.968Z,78.11
2018-07-27T05:17:14.396Z,78.37
2018-07-27T05:19:43.839Z,78.91
2018-07-27T05:22:13.249Z,77.83
2018-07-27T05:24:42.758Z,77.95
2018-07-27T05:27:12.171Z,77.47
2018-07-27T05:29:41.288Z,77.36
2018-07-27T05:32:10.833Z,77.00
2018-07-27T05:34:40.309Z,77.47
2018-07-27T05:37:09.820Z,77.84
2018-07-27T05:39:39.326Z,77.07
2018-07-27T05:42:08.762Z,77.14
2018-07-27T05:44:38.191Z,76.96
2018-07-27T05:47:07.814Z,76.95
2018-07-27T05:49:37.177Z,76.58
2018-07-27T05:52:06.914Z,76.41
2018-07-27T05:54:36.374Z,77.17
2018-07-27T05:57:05.871Z,77.10
2018-07-27T05:59:35.250Z,76.67
2018-07-27T06:02:04.530Z,76.50
2018-07-27T06:04:34.494Z,76.11
2018-07-27T06:07:03.944Z,76.46
2018-07-27T06:09:33.512Z,76.79
2018-07-27T06:12:03.060Z,76.04
2018-07-27T06:14:32.739Z,75.42
2018-07-27T06:17:03.268Z,74.88
2018-07-27T06:19:32.743Z,75.63
2018-07-27T06:22:01.949Z,74.63
2018-07-27T06:24:44.711Z,75.79
2018-07-27T06:27:14.201Z,75.58
2018-07-27T06:29:43.687Z,75.15
2018-07-27T06:32:13.592Z,74.55
2018-07-27T06:34:43.548Z,74.54
2018-07-27T06:37:13.369Z,74.26
2018-07-27T06:39:44.432Z,74.56
2018-07-27T06:42:14.433Z,74.42
2018-07-27T06:44:43.887Z,74.58
2018-07-27T06:47:13.091Z,74.37
2018-07-27T06:49:42.772Z,73.76
2018-07-27T06:52:12.238Z,73.41
2018-07-27T06:54:41.639Z,73.57
2018-07-27T06:57:11.092Z,74.21
2018-07-27T06:59:40.543Z,73.95
2018-07-27T07:02:10.573Z,73.80
2018-07-27T07:04:39.993Z,73.53
2018-07-27T07:07:09.472Z,73.42
2018-07-27T07:09:39.951Z,73.09
2018-07-27T07:12:09.428Z,73.12
2018-07-27T07:14:38.818Z,73.35
2018-07-27T07:17:08.236Z,72.57
2018-07-27T07:19:37.699Z,71.90
2018-07-27T07:22:07.188Z,71.80
2018-07-27T07:24:36.671Z,71.68
2018-07-27T07:27:06.251Z,70.34
2018-07-27T07:29:35.617Z,69.32
2018-07-27T07:32:04.799Z,66.19
2018-07-27T07:34:34.221Z,64.18
2018-07-27T07:37:03.871Z,63.12
2018-07-27T07:39:33.382Z,61.54
2018-07-27T07:42:02.815Z,60.63
2018-07-27T07:44:32.317Z,60.00
2018-07-27T07:47:01.831Z,59.83
2018-07-27T07:49:31.343Z,60.08
2018-07-27T07:52:00.893Z,59.68
2018-07-27T07:54:30.362Z,59.85
2018-07-27T07:56:59.784Z,58.85
2018-07-27T07:59:29.389Z,58.50
2018-07-27T08:01:58.540Z,58.54
2018-07-27T08:04:27.814Z,57.38
2018-07-27T08:06:58.360Z,58.43
2018-07-27T08:09:27.786Z,58.19
2018-07-27T08:11:57.775Z,58.13
2018-07-27T08:14:27.344Z,58.52
2018-07-27T08:16:56.507Z,58.08
2018-07-27T08:19:26.350Z,57.03
2018-07-27T08:21:55.902Z,57.19
2018-07-27T08:24:25.264Z,59.79
2018-07-27T08:27:04.701Z,58.68
2018-07-27T08:29:35.605Z,58.78
2018-07-27T08:32:05.243Z,58.79
2018-07-27T08:34:34.837Z,57.45
2018-07-27T08:37:04.386Z,56.61
2018-07-27T08:39:35.212Z,57.73
2018-07-27T08:42:04.756Z,58.04
2018-07-27T08:44:35.601Z,57.76
2018-07-27T08:47:05.224Z,58.64
2018-07-27T08:49:34.724Z,58.85
2018-07-27T08:52:04.734Z,57.59
2018-07-27T08:54:34.171Z,57.88
2018-07-27T08:57:03.581Z,58.10
2018-07-27T08:59:33.523Z,57.53
2018-07-27T09:02:02.689Z,57.09
2018-07-27T09:04:32.160Z,57.37
2018-07-27T09:07:01.815Z,58.57
2018-07-27T09:09:31.174Z,55.80
2018-07-27T09:12:00.682Z,56.07
2018-07-27T09:14:30.293Z,55.86
2018-07-27T09:16:59.748Z,55.16
2018-07-27T09:19:29.353Z,54.34
2018-07-27T09:21:58.806Z,54.92
2018-07-27T09:24:28.490Z,54.40
2018-07-27T09:26:58.253Z,54.27
2018-07-27T09:29:27.670Z,55.71
2018-07-27T09:31:57.162Z,54.66
2018-07-27T09:34:26.651Z,53.74
2018-07-27T09:36:56.094Z,53.36
2018-07-27T09:39:25.540Z,53.66
2018-07-27T09:41:54.975Z,53.33
2018-07-27T09:44:24.425Z,53.28
2018-07-27T09:46:53.945Z,53.50
2018-07-27T09:49:23.081Z,53.54
2018-07-27T09:51:52.594Z,54.21
2018-07-27T09:54:22.155Z,53.49
2018-07-27T09:56:51.384Z,51.17
2018-07-27T09:59:20.818Z,52.05
2018-07-27T10:01:50.266Z,52.06
2018-07-27T10:04:19.700Z,51.46
2018-07-27T10:06:49.155Z,50.35
2018-07-27T10:09:18.579Z,48.97
2018-07-27T10:11:47.752Z,51.24
2018-07-27T10:14:17.205Z,48.41
2018-07-27T10:16:46.605Z,48.77
2018-07-27T10:19:16.104Z,49.48
2018-07-27T10:21:45.562Z,50.13
2018-07-27T10:24:15.021Z,48.36
2018-07-27T10:26:44.434Z,49.16
2018-07-27T10:29:13.954Z,49.12
2018-07-27T10:31:43.514Z,48.09
2018-07-27T10:34:12.690Z,49.68
2018-07-27T10:36:42.142Z,47.87
2018-07-27T10:39:12.404Z,47.23
2018-07-27T10:41:41.883Z,47.08
2018-07-27T10:44:11.371Z,46.62
2018-07-27T10:46:40.846Z,48.27
2018-07-27T10:49:10.303Z,47.63
2018-07-27T10:51:39.647Z,47.13
2018-07-27T10:54:09.558Z,47.58
2018-07-27T10:56:39.046Z,47.76
2018-07-27T10:59:09.143Z,47.73
2018-07-27T11:01:38.553Z,47.58
2018-07-27T11:04:07.987Z,47.56
2018-07-27T11:06:37.438Z,48.75
2018-07-27T11:09:08.695Z,48.51
2018-07-27T11:11:38.167Z,47.01
2018-07-27T11:14:07.677Z,45.89
2018-07-27T11:16:37.167Z,46.17
2018-07-27T11:19:06.652Z,45.01
2018-07-27T11:21:36.143Z,46.45
2018-07-27T11:24:05.604Z,45.51
2018-07-27T11:26:35.034Z,44.90
2018-07-27T11:29:04.632Z,43.54
2018-07-27T11:31:35.267Z,43.66
2018-07-27T11:34:04.796Z,45.13
2018-07-27T11:36:34.265Z,45.99
2018-07-27T11:39:06.279Z,45.54
2018-07-27T11:41:35.785Z,41.87
2018-07-27T11:44:05.405Z,42.53
2018-07-27T11:46:36.093Z,42.29
2018-07-27T11:49:05.342Z,43.50
2018-07-27T11:51:34.736Z,43.82
2018-07-27T11:54:04.256Z,43.30
2018-07-27T11:56:33.762Z,43.11
2018-07-27T11:59:03.190Z,44.91
2018-07-27T12:01:32.729Z,45.00
2018-07-27T12:04:02.139Z,42.20
2018-07-27T12:06:31.577Z,43.45
2018-07-27T12:09:01.029Z,43.24
2018-07-27T12:11:30.169Z,43.58
2018-07-27T12:14:00.621Z,42.61
2018-07-27T12:16:29.980Z,44.21
2018-07-27T12:18:59.407Z,42.53
2018-07-27T12:21:29.112Z,41.33
2018-07-27T12:23:58.351Z,42.16
2018-07-27T12:26:27.836Z,42.72
2018-07-27T12:28:57.377Z,41.07
2018-07-27T12:31:26.881Z,41.89
2018-07-27T12:33:56.405Z,41.90
2018-07-27T12:36:25.827Z,40.75
2018-07-27T12:38:54.936Z,40.29
2018-07-27T12:41:24.434Z,40.16
2018-07-27T12:43:53.665Z,40.61
2018-07-27T12:46:23.127Z,38.36
2018-07-27T12:48:52.610Z,37.72
2018-07-27T12:51:22.640Z,38.89
2018-07-27T12:53:52.081Z,39.42
2018-07-27T12:56:21.502Z,37.19
2018-07-27T12:58:51.017Z,38.55
2018-07-27T13:01:20.503Z,38.51
2018-07-27T13:03:50.032Z,37.87
2018-07-27T13:06:19.463Z,38.40
2018-07-27T13:08:48.936Z,36.95
2018-07-27T13:11:18.357Z,38.63
2018-07-27T13:13:47.832Z,36.76
2018-07-27T13:16:17.255Z,36.79
2018-07-27T13:18:47.914Z,38.45
2018-07-27T13:21:17.368Z,39.60
2018-07-27T13:23:58.326Z,36.25
2018-07-27T13:26:27.861Z,37.10
2018-07-27T13:28:57.609Z,37.48
2018-07-27T13:31:58.986Z,35.83
2018-07-27T13:37:18.585Z,36.18
2018-07-27T13:39:48.862Z,34.92
2018-07-27T13:42:19.750Z,35.70
2018-07-27T13:44:49.280Z,35.37
2018-07-27T13:47:19.248Z,35.83
2018-07-27T13:49:48.754Z,34.75
2018-07-27T13:52:18.360Z,34.40
2018-07-27T13:54:47.954Z,35.28
2018-07-27T13:57:17.560Z,35.04
2018-07-27T13:59:47.026Z,34.01
2018-07-27T14:02:16.481Z,32.42
2018-07-27T14:04:45.953Z,33.15
2018-07-27T14:07:15.999Z,33.77
2018-07-27T14:09:45.473Z,33.64
2018-07-27T14:12:14.914Z,34.85
2018-07-27T14:14:44.330Z,35.53
2018-07-27T14:17:13.768Z,33.76
2018-07-27T14:19:42.942Z,34.26
2018-07-27T14:22:12.537Z,34.10
2018-07-27T14:24:41.995Z,32.80
2018-07-27T14:27:11.435Z,34.08
2018-07-27T14:29:40.890Z,34.04
2018-07-27T14:32:10.077Z,33.39
2018-07-27T14:34:39.516Z,31.85
2018-07-27T14:37:09.059Z,31.00
2018-07-27T14:39:38.669Z,33.26
2018-07-27T14:42:08.187Z,32.04
2018-07-27T14:44:38.352Z,30.81
2018-07-27T14:47:07.809Z,31.84
2018-07-27T14:49:37.323Z,31.52
2018-07-27T14:52:06.786Z,30.82
2018-07-27T14:54:36.157Z,32.33
2018-07-27T14:57:05.687Z,30.85
2018-07-27T14:59:35.124Z,29.57
2018-07-27T15:02:04.684Z,31.52
2018-07-27T15:04:34.220Z,30.61
2018-07-27T15:07:03.636Z,30.75
2018-07-27T15:09:33.123Z,32.53
2018-07-27T15:12:02.623Z,31.22
2018-07-27T15:14:31.996Z,30.72
2018-07-27T15:17:01.486Z,31.40
2018-07-27T15:19:30.939Z,29.49
2018-07-27T15:22:00.437Z,29.91
2018-07-27T15:24:29.977Z,30.03
2018-07-27T15:26:59.453Z,31.46
2018-07-27T15:29:28.663Z,30.88
2018-07-27T15:31:58.692Z,30.25
2018-07-27T15:34:28.170Z,30.07
2018-07-27T15:36:57.653Z,30.57
2018-07-27T15:39:27.203Z,29.17
2018-07-27T15:41:56.773Z,29.16
2018-07-27T15:44:26.389Z,29.97
2018-07-27T15:46:56.372Z,31.79
2018-07-27T15:49:25.953Z,30.29
2018-07-27T15:51:55.644Z,29.07
2018-07-27T15:54:26.328Z,28.69
2018-07-27T15:56:55.817Z,29.71
2018-07-27T15:59:25.253Z,28.47
2018-07-27T16:01:54.738Z,28.76
2018-07-27T16:04:24.847Z,30.68
2018-07-27T16:06:54.447Z,30.91
2018-07-27T16:09:23.945Z,31.03
2018-07-27T16:11:53.402Z,30.73
2018-07-27T16:14:22.847Z,30.90
2018-07-27T16:16:52.105Z,32.41
2018-07-27T16:19:21.552Z,31.58
2018-07-27T16:21:50.992Z,31.41
2018-07-27T16:24:20.513Z,31.24
2018-07-27T16:26:49.967Z,31.49
2018-07-27T16:29:19.390Z,30.29
2018-07-27T16:31:48.957Z,30.23
2018-07-27T16:34:18.369Z,31.45
2018-07-27T16:36:48.006Z,31.00
2018-07-27T16:39:17.480Z,30.46
2018-07-27T16:41:46.590Z,31.40
2018-07-27T16:44:16.047Z,30.59
2018-07-27T16:46:45.948Z,31.11
2018-07-27T16:49:15.353Z,32.38
2018-07-27T16:51:45.810Z,30.63
2018-07-27T16:54:15.786Z,30.86
2018-07-27T16:56:45.194Z,30.07
2018-07-27T16:59:14.627Z,31.37
2018-07-27T17:01:44.124Z,30.54
2018-07-27T17:04:13.585Z,33.50
2018-07-27T17:06:42.764Z,31.31
2018-07-27T17:09:12.247Z,30.25
2018-07-27T17:11:41.776Z,31.98
2018-07-27T17:14:11.772Z,32.90
2018-07-27T17:16:41.305Z,33.09
2018-07-27T17:19:10.850Z,33.90
2018-07-27T17:21:40.398Z,34.38
2018-07-27T17:24:09.917Z,33.40
2018-07-27T17:26:39.377Z,34.11
2018-07-27T17:29:08.811Z,34.92
2018-07-27T17:31:38.308Z,35.32
2018-07-27T17:34:07.788Z,34.64
2018-07-27T17:36:37.251Z,34.94
2018-07-27T17:39:10.479Z,36.80
2018-07-27T17:41:40.081Z,37.84
2018-07-27T17:44:09.978Z,37.92
2018-07-27T17:46:39.491Z,38.14
2018-07-27T17:49:09.511Z,38.30
2018-07-27T17:51:39.340Z,39.12
2018-07-27T17:54:09.575Z,38.30
2018-07-27T17:56:39.073Z,40.40
2018-07-27T17:59:08.509Z,40.55
2018-07-27T18:01:38.002Z,41.53
2018-07-27T18:04:07.705Z,41.81
2018-07-27T18:06:37.124Z,42.06
2018-07-27T18:09:10.876Z,41.86
2018-07-27T18:11:40.656Z,42.39
2018-07-27T18:14:10.556Z,42.37
2018-07-27T18:16:39.977Z,42.41
2018-07-27T18:19:09.470Z,42.82
2018-07-27T18:21:39.073Z,42.83
2018-07-27T18:24:08.614Z,43.55
2018-07-27T18:26:38.061Z,43.67
2018-07-27T18:29:07.878Z,42.96
2018-07-27T18:31:37.667Z,43.89
2018-07-27T18:34:06.844Z,43.28
2018-07-27T18:36:36.289Z,43.88
2018-07-27T18:39:09.716Z,44.28
2018-07-27T18:41:39.227Z,44.75
2018-07-27T18:44:08.942Z,44.53
2018-07-27T18:46:39.377Z,45.25
2018-07-27T18:49:09.222Z,45.57
2018-07-27T18:51:38.773Z,45.67
2018-07-27T18:54:08.240Z,45.45
2018-07-27T18:56:37.855Z,45.17
2018-07-27T18:59:07.439Z,45.92
2018-07-27T19:01:36.936Z,46.12
2018-07-27T19:04:06.470Z,46.65
2018-07-27T19:06:35.981Z,47.34
2018-07-27T19:09:10.805Z,47.49
2018-07-27T19:11:40.294Z,47.54
2018-07-27T19:14:11.028Z,47.56
2018-07-27T19:16:40.503Z,47.89
2018-07-27T19:19:10.001Z,48.01
2018-07-27T19:21:39.451Z,48.36
2018-07-27T19:24:09.008Z,48.28
2018-07-27T19:26:38.525Z,49.00
2018-07-27T19:29:07.956Z,49.50
2018-07-27T19:31:37.416Z,49.53
2018-07-27T19:34:06.922Z,50.25
2018-07-27T19:36:36.394Z,50.11
2018-07-27T19:39:09.601Z,50.20
2018-07-27T19:41:39.122Z,50.31
2018-07-27T19:44:08.636Z,50.16
2018-07-27T19:46:38.093Z,51.08
2018-07-27T19:49:07.526Z,51.34
2018-07-27T19:51:37.001Z,51.83
2018-07-27T19:54:06.503Z,52.72
2018-07-27T19:56:35.987Z,53.42
2018-07-27T19:59:05.453Z,53.95
2018-07-27T20:01:34.901Z,53.55
2018-07-27T20:04:04.361Z,53.88
2018-07-27T20:06:33.802Z,53.56
2018-07-27T20:09:03.356Z,53.65
2018-07-27T20:11:32.855Z,53.62
2018-07-27T20:14:02.302Z,54.60
2018-07-27T20:16:31.779Z,55.35
2018-07-27T20:19:01.212Z,55.28
2018-07-27T20:21:30.709Z,54.86
2018-07-27T20:24:00.160Z,55.25
2018-07-27T20:26:29.622Z,55.46
2018-07-27T20:28:59.016Z,56.57
2018-07-27T20:31:28.455Z,56.85
2018-07-27T20:33:57.924Z,57.24
2018-07-27T20:36:27.443Z,56.92
2018-07-27T20:38:56.917Z,56.86
2018-07-27T20:41:26.349Z,57.48
2018-07-27T20:43:55.811Z,57.64
2018-07-27T20:46:25.264Z,57.53
2018-07-27T20:48:54.788Z,58.00
2018-07-27T20:51:24.312Z,57.81
2018-07-27T20:53:53.800Z,58.11
2018-07-27T20:56:23.264Z,58.19
2018-07-27T20:58:52.766Z,58.01
2018-07-27T21:01:22.175Z,58.15
2018-07-27T21:03:51.681Z,58.94
2018-07-27T21:06:21.167Z,58.81
2018-07-27T21:08:50.650Z,59.28
2018-07-27T21:11:20.090Z,59.42
2018-07-27T21:13:49.526Z,59.81
2018-07-27T21:16:19.059Z,59.48
2018-07-27T21:18:48.472Z,60.43
2018-07-27T21:21:17.894Z,60.64
2018-07-27T21:23:47.254Z,60.64
2018-07-27T21:26:16.681Z,60.95
2018-07-27T21:28:46.136Z,60.89
2018-07-27T21:31:15.561Z,61.02
2018-07-27T21:33:44.979Z,60.56
2018-07-27T21:36:14.378Z,61.28
2018-07-27T21:38:43.829Z,61.11
2018-07-27T21:41:13.247Z,61.42
2018-07-27T21:43:42.668Z,62.15
2018-07-27T21:46:12.068Z,62.50
2018-07-27T21:48:41.555Z,62.33
2018-07-27T21:51:11.091Z,62.21
2018-07-27T21:53:40.552Z,62.22
2018-07-27T21:56:10.020Z,62.94
2018-07-27T21:58:39.470Z,62.90
2018-07-27T22:01:08.948Z,63.12
2018-07-27T22:03:38.386Z,63.50
2018-07-27T22:06:07.887Z,63.56
2018-07-27T22:08:38.351Z,63.19
2018-07-27T22:11:08.031Z,63.44
2018-07-27T22:13:37.466Z,63.97
2018-07-27T22:16:06.874Z,64.37
2018-07-27T22:18:36.317Z,64.01
2018-07-27T22:21:05.789Z,64.57
2018-07-27T22:23:35.293Z,64.66
2018-07-27T22:26:04.721Z,65.63
2018-07-27T22:28:34.155Z,65.37
2018-07-27T22:31:03.628Z,65.86
2018-07-27T22:33:33.094Z,65.17
2018-07-27T22:36:02.557Z,65.25
2018-07-27T22:38:31.973Z,66.19
2018-07-27T22:41:01.452Z,66.05
2018-07-27T22:43:30.953Z,65.99
2018-07-27T22:46:00.373Z,66.51
2018-07-27T22:48:29.786Z,66.91
2018-07-27T22:50:59.269Z,67.03
2018-07-27T22:53:28.684Z,67.13
2018-07-27T22:55:58.131Z,66.75
2018-07-27T22:58:27.698Z,67.62
2018-07-27T23:00:57.071Z,67.68
2018-07-27T23:03:26.465Z,67.53
2018-07-27T23:05:55.962Z,68.28
2018-07-27T23:08:25.405Z,68.43
2018-07-27T23:10:54.902Z,68.26
2018-07-27T23:13:24.376Z,68.54
2018-07-27T23:15:53.795Z,68.34
2018-07-27T23:18:23.268Z,68.26
2018-07-27T23:20:52.671Z,68.40
2018-07-27T23:23:22.180Z,69.05
2018-07-27T23:25:51.609Z,69.59
2018-07-27T23:28:21.084Z,69.15
2018-07-27T23:30:50.548Z,69.57
2018-07-27T23:33:20.028Z,69.25
2018-07-27T23:35:49.470Z,69.23
2018-07-27T23:38:18.911Z,69.24
2018-07-27T23:40:48.349Z,69.52
2018-07-27T23:43:17.857Z,69.47
2018-07-27T23:45:47.265Z,69.07
2018-07-27T23:48:16.776Z,69.45
2018-07-27T23:50:46.236Z,70.01
2018-07-27T23:53:15.931Z,70.33
2018-07-27T23:55:45.397Z,70.46
2018-07-27T23:58:14.794Z,71.14
